< < Back
Terminal Aerodrome Forecast


Current Version              Previous Versions:   1  2  3  4  5  6  7  8  9  

Terminal Aerodrome Forecast

957
FTUS42 KILM 181400 AAA
TAFFLO
TAF AMD
KFLO 181402Z 1814/1912 05007KT P6SM OVC009
     FM181500 05007KT P6SM BKN010
     FM181700 07006KT P6SM FEW010 BKN035=

Latest METAR

250
SAUS70 KWBC 181700 RRD
MTRFLO
METAR KFLO 181653Z 04005KT 10SM SCT021 SCT030 BKN055 26/19 A2998 RMK AO2
SLP148 T02610194


USA.gov is the U.S. government's official web portal to all federal, state and local government web resources and services.